sensor_id;sensor_type;location;lat;lon;timestamp;temperature;humidity
18456;DHT22;9357;49.900;8.208;2023-04-25T00:00:27;9.60;99.90
18456;DHT22;9357;49.900;8.208;2023-04-25T00:02:00;9.50;99.90
18456;DHT22;9357;49.900;8.208;2023-04-25T00:03:32;9.60;99.90
18456;DHT22;9357;49.900;8.208;2023-04-25T00:05:05;9.60;99.90
18456;DHT22;9357;49.900;8.208;2023-04-25T00:06:38;9.60;99.90
18456;DHT22;9357;49.900;8.208;2023-04-25T00:08:11;9.60;99.90
18456;DHT22;9357;49.900;8.208;2023-04-25T00:09:45;9.50;99.90
18456;DHT22;9357;49.900;8.208;2023-04-25T00:11:17;9.60;99.90
18456;DHT22;9357;49.900;8.208;2023-04-25T00:12:50;9.50;99.90
18456;DHT22;9357;49.900;8.208;2023-04-25T00:14:24;9.50;99.90
18456;DHT22;9357;49.900;8.208;2023-04-25T00:15:57;9.50;99.90
18456;DHT22;9357;49.900;8.208;2023-04-25T00:17:30;9.50;99.90
18456;DHT22;9357;49.900;8.208;2023-04-25T00:19:02;9.40;99.90
18456;DHT22;9357;49.900;8.208;2023-04-25T00:20:35;9.50;99.90
18456;DHT22;9357;49.900;8.208;2023-04-25T00:22:08;9.50;99.90
18456;DHT22;9357;49.900;8.208;2023-04-25T00:23:41;9.50;99.90
18456;DHT22;9357;49.900;8.208;2023-04-25T00:25:13;9.40;99.90
18456;DHT22;9357;49.900;8.208;2023-04-25T00:26:45;9.40;99.90
18456;DHT22;9357;49.900;8.208;2023-04-25T00:28:19;9.40;99.90
18456;DHT22;9357;49.900;8.208;2023-04-25T00:29:53;9.40;99.90
18456;DHT22;9357;49.900;8.208;2023-04-25T00:31:26;9.40;99.90
18456;DHT22;9357;49.900;8.208;2023-04-25T00:32:58;9.40;99.90
18456;DHT22;9357;49.900;8.208;2023-04-25T00:34:31;9.40;99.90
18456;DHT22;9357;49.900;8.208;2023-04-25T00:36:05;9.40;99.90
18456;DHT22;9357;49.900;8.208;2023-04-25T00:37:37;9.40;99.90
18456;DHT22;9357;49.900;8.208;2023-04-25T00:39:11;9.40;99.90
18456;DHT22;9357;49.900;8.208;2023-04-25T00:40:44;9.40;99.90
18456;DHT22;9357;49.900;8.208;2023-04-25T00:42:16;9.40;99.90
18456;DHT22;9357;49.900;8.208;2023-04-25T00:43:49;9.40;99.90
18456;DHT22;9357;49.900;8.208;2023-04-25T00:45:27;9.40;99.90
18456;DHT22;9357;49.900;8.208;2023-04-25T00:47:01;9.30;99.90
18456;DHT22;9357;49.900;8.208;2023-04-25T00:48:35;9.40;99.90
18456;DHT22;9357;49.900;8.208;2023-04-25T00:50:08;9.40;99.90
18456;DHT22;9357;49.900;8.208;2023-04-25T00:51:41;9.40;99.90
18456;DHT22;9357;49.900;8.208;2023-04-25T00:53:15;9.30;99.90
18456;DHT22;9357;49.900;8.208;2023-04-25T00:54:48;9.40;99.90
18456;DHT22;9357;49.900;8.208;2023-04-25T00:56:21;9.40;99.90
18456;DHT22;9357;49.900;8.208;2023-04-25T00:57:53;9.30;99.90
18456;DHT22;9357;49.900;8.208;2023-04-25T00:59:27;9.30;99.90
18456;DHT22;9357;49.900;8.208;2023-04-25T01:01:02;9.40;99.90
18456;DHT22;9357;49.900;8.208;2023-04-25T01:02:34;9.40;99.90
18456;DHT22;9357;49.900;8.208;2023-04-25T01:04:08;9.40;99.90
18456;DHT22;9357;49.900;8.208;2023-04-25T01:05:41;9.40;99.90
18456;DHT22;9357;49.900;8.208;2023-04-25T01:07:14;9.30;99.90
18456;DHT22;9357;49.900;8.208;2023-04-25T01:08:47;9.30;99.90
18456;DHT22;9357;49.900;8.208;2023-04-25T01:10:19;9.40;99.90
18456;DHT22;9357;49.900;8.208;2023-04-25T01:11:52;9.30;99.90
18456;DHT22;9357;49.900;8.208;2023-04-25T01:13:24;9.30;99.90
18456;DHT22;9357;49.900;8.208;2023-04-25T01:14:57;9.30;99.90
18456;DHT22;9357;49.900;8.208;2023-04-25T01:16:31;9.30;99.90
18456;DHT22;9357;49.900;8.208;2023-04-25T01:18:05;9.30;99.90
18456;DHT22;9357;49.900;8.208;2023-04-25T01:19:38;9.30;99.90
18456;DHT22;9357;49.900;8.208;2023-04-25T01:21:13;9.30;99.90
18456;DHT22;9357;49.900;8.208;2023-04-25T01:22:46;9.30;99.90
18456;DHT22;9357;49.900;8.208;2023-04-25T01:24:19;9.40;99.90
18456;DHT22;9357;49.900;8.208;2023-04-25T01:25:52;9.40;99.90
18456;DHT22;9357;49.900;8.208;2023-04-25T01:27:25;9.40;99.90
18456;DHT22;9357;49.900;8.208;2023-04-25T01:28:58;9.40;99.90
18456;DHT22;9357;49.900;8.208;2023-04-25T01:30:31;9.40;99.90
18456;DHT22;9357;49.900;8.208;2023-04-25T01:32:05;9.40;99.90
18456;DHT22;9357;49.900;8.208;2023-04-25T01:33:38;9.40;99.90
18456;DHT22;9357;49.900;8.208;2023-04-25T01:35:12;9.40;99.90
18456;DHT22;9357;49.900;8.208;2023-04-25T01:36:47;9.50;99.90
18456;DHT22;9357;49.900;8.208;2023-04-25T01:38:21;9.50;99.90
18456;DHT22;9357;49.900;8.208;2023-04-25T01:39:54;9.50;99.90
18456;DHT22;9357;49.900;8.208;2023-04-25T01:41:27;9.40;99.90
18456;DHT22;9357;49.900;8.208;2023-04-25T01:43:00;9.50;99.90
18456;DHT22;9357;49.900;8.208;2023-04-25T01:44:32;9.50;99.90
18456;DHT22;9357;49.900;8.208;2023-04-25T01:46:05;9.50;99.90
18456;DHT22;9357;49.900;8.208;2023-04-25T01:47:37;9.50;99.90
18456;DHT22;9357;49.900;8.208;2023-04-25T01:49:11;9.50;99.90
18456;DHT22;9357;49.900;8.208;2023-04-25T01:50:44;9.50;99.90
18456;DHT22;9357;49.900;8.208;2023-04-25T01:52:17;9.50;99.90
18456;DHT22;9357;49.900;8.208;2023-04-25T01:53:50;9.60;99.90
18456;DHT22;9357;49.900;8.208;2023-04-25T01:55:23;9.60;99.90
18456;DHT22;9357;49.900;8.208;2023-04-25T01:56:57;9.50;99.90
18456;DHT22;9357;49.900;8.208;2023-04-25T01:58:30;9.60;99.90
18456;DHT22;9357;49.900;8.208;2023-04-25T02:00:05;9.60;99.90
18456;DHT22;9357;49.900;8.208;2023-04-25T02:01:37;9.60;99.90
18456;DHT22;9357;49.900;8.208;2023-04-25T02:03:10;9.60;99.90
18456;DHT22;9357;49.900;8.208;2023-04-25T02:04:43;9.70;99.90
18456;DHT22;9357;49.900;8.208;2023-04-25T02:06:15;9.60;99.90
18456;DHT22;9357;49.900;8.208;2023-04-25T02:07:50;9.70;99.90
18456;DHT22;9357;49.900;8.208;2023-04-25T02:09:22;9.70;99.90
18456;DHT22;9357;49.900;8.208;2023-04-25T02:10:55;9.70;99.90
18456;DHT22;9357;49.900;8.208;2023-04-25T02:12:27;9.70;99.90
18456;DHT22;9357;49.900;8.208;2023-04-25T02:14:00;9.60;99.90
18456;DHT22;9357;49.900;8.208;2023-04-25T02:15:32;9.60;99.90
18456;DHT22;9357;49.900;8.208;2023-04-25T02:17:05;9.60;99.90
18456;DHT22;9357;49.900;8.208;2023-04-25T02:18:38;9.60;99.90
18456;DHT22;9357;49.900;8.208;2023-04-25T02:20:11;9.60;99.90
18456;DHT22;9357;49.900;8.208;2023-04-25T02:21:44;9.60;99.90
18456;DHT22;9357;49.900;8.208;2023-04-25T02:23:18;9.60;99.90
18456;DHT22;9357;49.900;8.208;2023-04-25T02:24:52;9.60;99.90
18456;DHT22;9357;49.900;8.208;2023-04-25T02:26:25;9.50;99.90
18456;DHT22;9357;49.900;8.208;2023-04-25T02:27:58;9.50;99.90
18456;DHT22;9357;49.900;8.208;2023-04-25T02:29:31;9.60;99.90
18456;DHT22;9357;49.900;8.208;2023-04-25T02:31:03;9.50;99.90
18456;DHT22;9357;49.900;8.208;2023-04-25T02:32:36;9.50;99.90
18456;DHT22;9357;49.900;8.208;2023-04-25T02:34:09;9.50;99.90
18456;DHT22;9357;49.900;8.208;2023-04-25T02:35:42;9.50;99.90
18456;DHT22;9357;49.900;8.208;2023-04-25T02:37:15;9.50;99.90
18456;DHT22;9357;49.900;8.208;2023-04-25T02:38:49;9.50;99.90
18456;DHT22;9357;49.900;8.208;2023-04-25T02:40:21;9.50;99.90
18456;DHT22;9357;49.900;8.208;2023-04-25T02:41:53;9.50;99.90
18456;DHT22;9357;49.900;8.208;2023-04-25T02:43:26;9.50;99.90
18456;DHT22;9357;49.900;8.208;2023-04-25T02:44:59;9.50;99.90
18456;DHT22;9357;49.900;8.208;2023-04-25T02:46:32;9.50;99.90
18456;DHT22;9357;49.900;8.208;2023-04-25T02:48:08;9.50;99.90
18456;DHT22;9357;49.900;8.208;2023-04-25T02:49:41;9.50;99.90
18456;DHT22;9357;49.900;8.208;2023-04-25T02:51:13;9.50;99.90
18456;DHT22;9357;49.900;8.208;2023-04-25T02:52:47;9.50;99.90
18456;DHT22;9357;49.900;8.208;2023-04-25T02:54:21;9.50;99.90
18456;DHT22;9357;49.900;8.208;2023-04-25T02:55:54;9.50;99.90
18456;DHT22;9357;49.900;8.208;2023-04-25T02:57:29;9.50;99.90
18456;DHT22;9357;49.900;8.208;2023-04-25T02:59:02;9.40;99.90
18456;DHT22;9357;49.900;8.208;2023-04-25T03:00:34;9.40;99.90
18456;DHT22;9357;49.900;8.208;2023-04-25T03:02:07;9.40;99.90
18456;DHT22;9357;49.900;8.208;2023-04-25T03:03:39;9.40;99.90
18456;DHT22;9357;49.900;8.208;2023-04-25T03:05:12;9.30;99.90
18456;DHT22;9357;49.900;8.208;2023-04-25T03:06:45;9.30;99.90
18456;DHT22;9357;49.900;8.208;2023-04-25T03:08:18;9.30;99.90
18456;DHT22;9357;49.900;8.208;2023-04-25T03:09:52;9.30;99.90
18456;DHT22;9357;49.900;8.208;2023-04-25T03:11:25;9.30;99.90
18456;DHT22;9357;49.900;8.208;2023-04-25T03:12:58;9.20;99.90
18456;DHT22;9357;49.900;8.208;2023-04-25T03:14:31;9.20;99.90
18456;DHT22;9357;49.900;8.208;2023-04-25T03:16:04;9.20;99.90
18456;DHT22;9357;49.900;8.208;2023-04-25T03:17:37;9.20;99.90
18456;DHT22;9357;49.900;8.208;2023-04-25T03:19:10;9.20;99.90
18456;DHT22;9357;49.900;8.208;2023-04-25T03:20:41;9.20;99.90
18456;DHT22;9357;49.900;8.208;2023-04-25T03:22:14;9.20;99.90
18456;DHT22;9357;49.900;8.208;2023-04-25T03:23:47;9.20;99.90
18456;DHT22;9357;49.900;8.208;2023-04-25T03:25:21;9.20;99.90
18456;DHT22;9357;49.900;8.208;2023-04-25T03:26:54;9.20;99.90
18456;DHT22;9357;49.900;8.208;2023-04-25T03:28:27;9.20;99.90
18456;DHT22;9357;49.900;8.208;2023-04-25T03:29:59;9.20;99.90
18456;DHT22;9357;49.900;8.208;2023-04-25T03:31:32;9.20;99.90
18456;DHT22;9357;49.900;8.208;2023-04-25T03:33:04;9.20;99.90
18456;DHT22;9357;49.900;8.208;2023-04-25T03:34:36;9.20;99.90
18456;DHT22;9357;49.900;8.208;2023-04-25T03:36:09;9.20;99.90
18456;DHT22;9357;49.900;8.208;2023-04-25T03:37:42;9.10;99.90
18456;DHT22;9357;49.900;8.208;2023-04-25T03:39:16;9.20;99.90
18456;DHT22;9357;49.900;8.208;2023-04-25T03:40:51;9.20;99.90
18456;DHT22;9357;49.900;8.208;2023-04-25T03:42:24;9.20;99.90
18456;DHT22;9357;49.900;8.208;2023-04-25T03:43:57;9.20;99.90
18456;DHT22;9357;49.900;8.208;2023-04-25T03:45:29;9.20;99.90
18456;DHT22;9357;49.900;8.208;2023-04-25T03:47:02;9.20;99.90
18456;DHT22;9357;49.900;8.208;2023-04-25T03:48:35;9.30;99.90
18456;DHT22;9357;49.900;8.208;2023-04-25T03:50:09;9.30;99.90
18456;DHT22;9357;49.900;8.208;2023-04-25T03:51:41;9.30;99.90
18456;DHT22;9357;49.900;8.208;2023-04-25T03:53:14;9.20;99.90
18456;DHT22;9357;49.900;8.208;2023-04-25T03:54:47;9.20;99.90
18456;DHT22;9357;49.900;8.208;2023-04-25T03:56:21;9.20;99.90
18456;DHT22;9357;49.900;8.208;2023-04-25T03:57:54;9.20;99.90
18456;DHT22;9357;49.900;8.208;2023-04-25T03:59:26;9.10;99.90
18456;DHT22;9357;49.900;8.208;2023-04-25T04:00:59;9.10;99.90
18456;DHT22;9357;49.900;8.208;2023-04-25T04:02:34;9.10;99.90
18456;DHT22;9357;49.900;8.208;2023-04-25T04:04:09;9.10;99.90
18456;DHT22;9357;49.900;8.208;2023-04-25T04:05:42;9.10;99.90
18456;DHT22;9357;49.900;8.208;2023-04-25T04:07:15;9.20;99.90
18456;DHT22;9357;49.900;8.208;2023-04-25T04:08:47;9.10;99.90
18456;DHT22;9357;49.900;8.208;2023-04-25T04:10:20;9.10;99.90
18456;DHT22;9357;49.900;8.208;2023-04-25T04:11:54;9.10;99.90
18456;DHT22;9357;49.900;8.208;2023-04-25T04:13:28;9.10;99.90
18456;DHT22;9357;49.900;8.208;2023-04-25T04:15:01;9.10;99.90
18456;DHT22;9357;49.900;8.208;2023-04-25T04:16:35;9.10;99.90
18456;DHT22;9357;49.900;8.208;2023-04-25T04:18:08;9.10;99.90
18456;DHT22;9357;49.900;8.208;2023-04-25T04:19:41;9.00;99.90
18456;DHT22;9357;49.900;8.208;2023-04-25T04:21:14;9.00;99.90
18456;DHT22;9357;49.900;8.208;2023-04-25T04:22:46;9.00;99.90
18456;DHT22;9357;49.900;8.208;2023-04-25T04:24:19;8.90;99.90
18456;DHT22;9357;49.900;8.208;2023-04-25T04:25:52;8.90;99.90
18456;DHT22;9357;49.900;8.208;2023-04-25T04:27:26;8.90;99.90
18456;DHT22;9357;49.900;8.208;2023-04-25T04:29:00;8.90;99.90
18456;DHT22;9357;49.900;8.208;2023-04-25T04:30:33;8.90;99.90
18456;DHT22;9357;49.900;8.208;2023-04-25T04:32:07;8.90;99.90
18456;DHT22;9357;49.900;8.208;2023-04-25T04:33:40;8.90;99.90
18456;DHT22;9357;49.900;8.208;2023-04-25T04:35:13;8.90;99.90
18456;DHT22;9357;49.900;8.208;2023-04-25T04:36:46;8.90;99.90
18456;DHT22;9357;49.900;8.208;2023-04-25T04:38:19;8.90;99.90
18456;DHT22;9357;49.900;8.208;2023-04-25T04:39:53;9.00;99.90
18456;DHT22;9357;49.900;8.208;2023-04-25T04:41:25;9.00;99.90
18456;DHT22;9357;49.900;8.208;2023-04-25T04:42:59;9.00;99.90
18456;DHT22;9357;49.900;8.208;2023-04-25T04:44:32;9.00;99.90
18456;DHT22;9357;49.900;8.208;2023-04-25T04:46:06;9.00;99.90
18456;DHT22;9357;49.900;8.208;2023-04-25T04:47:38;9.00;99.90
18456;DHT22;9357;49.900;8.208;2023-04-25T04:49:11;9.00;99.90
18456;DHT22;9357;49.900;8.208;2023-04-25T04:50:45;9.00;99.90
18456;DHT22;9357;49.900;8.208;2023-04-25T04:52:18;9.00;99.90
18456;DHT22;9357;49.900;8.208;2023-04-25T04:53:50;9.00;99.90
18456;DHT22;9357;49.900;8.208;2023-04-25T04:55:24;9.00;99.90
18456;DHT22;9357;49.900;8.208;2023-04-25T04:56:57;9.00;99.90
18456;DHT22;9357;49.900;8.208;2023-04-25T04:58:31;9.00;99.90
18456;DHT22;9357;49.900;8.208;2023-04-25T05:00:05;9.00;99.90
18456;DHT22;9357;49.900;8.208;2023-04-25T05:01:42;8.90;99.90
18456;DHT22;9357;49.900;8.208;2023-04-25T05:03:14;9.00;99.90
18456;DHT22;9357;49.900;8.208;2023-04-25T05:04:48;8.90;99.90
18456;DHT22;9357;49.900;8.208;2023-04-25T05:06:22;8.90;99.90
18456;DHT22;9357;49.900;8.208;2023-04-25T05:07:54;8.90;99.90
18456;DHT22;9357;49.900;8.208;2023-04-25T05:09:27;8.90;99.90
18456;DHT22;9357;49.900;8.208;2023-04-25T05:11:00;8.90;99.90
18456;DHT22;9357;49.900;8.208;2023-04-25T05:12:32;8.80;99.90
18456;DHT22;9357;49.900;8.208;2023-04-25T05:14:09;8.80;99.90
18456;DHT22;9357;49.900;8.208;2023-04-25T05:15:41;8.90;99.90
18456;DHT22;9357;49.900;8.208;2023-04-25T05:17:14;8.90;99.90
18456;DHT22;9357;49.900;8.208;2023-04-25T05:18:46;8.90;99.90
18456;DHT22;9357;49.900;8.208;2023-04-25T05:20:19;8.90;99.90
18456;DHT22;9357;49.900;8.208;2023-04-25T05:21:52;8.90;99.90
18456;DHT22;9357;49.900;8.208;2023-04-25T05:23:25;8.90;99.90
18456;DHT22;9357;49.900;8.208;2023-04-25T05:24:59;8.90;99.90
18456;DHT22;9357;49.900;8.208;2023-04-25T05:26:32;8.90;99.90
18456;DHT22;9357;49.900;8.208;2023-04-25T05:28:04;8.90;99.90
18456;DHT22;9357;49.900;8.208;2023-04-25T05:29:38;9.00;99.90
18456;DHT22;9357;49.900;8.208;2023-04-25T05:31:11;8.90;99.90
18456;DHT22;9357;49.900;8.208;2023-04-25T05:32:44;8.90;99.90
18456;DHT22;9357;49.900;8.208;2023-04-25T05:34:18;8.90;99.90
18456;DHT22;9357;49.900;8.208;2023-04-25T05:35:51;8.80;99.90
18456;DHT22;9357;49.900;8.208;2023-04-25T05:37:23;8.80;99.90
18456;DHT22;9357;49.900;8.208;2023-04-25T05:38:56;8.80;99.90
18456;DHT22;9357;49.900;8.208;2023-04-25T05:40:29;8.80;99.90
18456;DHT22;9357;49.900;8.208;2023-04-25T05:42:02;8.80;99.90
18456;DHT22;9357;49.900;8.208;2023-04-25T05:43:35;8.80;99.90
18456;DHT22;9357;49.900;8.208;2023-04-25T05:45:09;8.80;99.90
18456;DHT22;9357;49.900;8.208;2023-04-25T05:46:42;8.80;99.90
18456;DHT22;9357;49.900;8.208;2023-04-25T05:48:14;8.80;99.90
18456;DHT22;9357;49.900;8.208;2023-04-25T05:49:47;8.70;99.90
18456;DHT22;9357;49.900;8.208;2023-04-25T05:51:20;8.80;99.90
18456;DHT22;9357;49.900;8.208;2023-04-25T05:52:52;8.80;99.90
18456;DHT22;9357;49.900;8.208;2023-04-25T05:54:25;8.80;99.90
18456;DHT22;9357;49.900;8.208;2023-04-25T05:55:58;8.80;99.90
18456;DHT22;9357;49.900;8.208;2023-04-25T05:57:31;8.80;99.90
18456;DHT22;9357;49.900;8.208;2023-04-25T05:59:03;8.80;99.90
18456;DHT22;9357;49.900;8.208;2023-04-25T06:00:37;8.80;99.90
18456;DHT22;9357;49.900;8.208;2023-04-25T06:02:09;8.80;99.90
18456;DHT22;9357;49.900;8.208;2023-04-25T06:03:42;8.80;99.90
18456;DHT22;9357;49.900;8.208;2023-04-25T06:05:15;8.80;99.90
18456;DHT22;9357;49.900;8.208;2023-04-25T06:06:48;8.80;99.90
18456;DHT22;9357;49.900;8.208;2023-04-25T06:08:21;8.80;99.90
18456;DHT22;9357;49.900;8.208;2023-04-25T06:09:54;8.80;99.90
18456;DHT22;9357;49.900;8.208;2023-04-25T06:11:27;8.80;99.90
18456;DHT22;9357;49.900;8.208;2023-04-25T06:12:59;8.80;99.90
18456;DHT22;9357;49.900;8.208;2023-04-25T06:14:32;8.80;99.90
18456;DHT22;9357;49.900;8.208;2023-04-25T06:16:06;8.80;99.90
18456;DHT22;9357;49.900;8.208;2023-04-25T06:17:39;8.80;99.90
18456;DHT22;9357;49.900;8.208;2023-04-25T06:19:12;8.80;99.90
18456;DHT22;9357;49.900;8.208;2023-04-25T06:20:45;8.80;99.90
18456;DHT22;9357;49.900;8.208;2023-04-25T06:22:18;8.80;99.90
18456;DHT22;9357;49.900;8.208;2023-04-25T06:23:51;8.80;99.90
18456;DHT22;9357;49.900;8.208;2023-04-25T06:25:24;8.80;99.90
18456;DHT22;9357;49.900;8.208;2023-04-25T06:26:56;8.80;99.90
18456;DHT22;9357;49.900;8.208;2023-04-25T06:28:29;8.80;99.90
18456;DHT22;9357;49.900;8.208;2023-04-25T06:30:03;8.90;99.90
18456;DHT22;9357;49.900;8.208;2023-04-25T06:31:37;8.90;99.90
18456;DHT22;9357;49.900;8.208;2023-04-25T06:33:10;8.90;99.90
18456;DHT22;9357;49.900;8.208;2023-04-25T06:34:42;9.00;99.90
18456;DHT22;9357;49.900;8.208;2023-04-25T06:36:15;9.00;99.90
18456;DHT22;9357;49.900;8.208;2023-04-25T06:37:48;9.00;99.90
18456;DHT22;9357;49.900;8.208;2023-04-25T06:39:20;9.00;99.90
18456;DHT22;9357;49.900;8.208;2023-04-25T06:40:54;9.00;99.90
18456;DHT22;9357;49.900;8.208;2023-04-25T06:42:27;9.00;99.90
18456;DHT22;9357;49.900;8.208;2023-04-25T06:44:00;9.00;99.90
18456;DHT22;9357;49.900;8.208;2023-04-25T06:45:33;9.00;99.90
18456;DHT22;9357;49.900;8.208;2023-04-25T06:47:07;9.00;99.90
18456;DHT22;9357;49.900;8.208;2023-04-25T06:48:40;9.00;99.90
18456;DHT22;9357;49.900;8.208;2023-04-25T06:50:13;9.00;99.90
18456;DHT22;9357;49.900;8.208;2023-04-25T06:51:45;9.00;99.90
18456;DHT22;9357;49.900;8.208;2023-04-25T06:53:18;9.00;99.90
18456;DHT22;9357;49.900;8.208;2023-04-25T06:54:51;9.10;99.90
18456;DHT22;9357;49.900;8.208;2023-04-25T06:56:24;9.10;99.90
18456;DHT22;9357;49.900;8.208;2023-04-25T06:57:56;9.10;99.90
18456;DHT22;9357;49.900;8.208;2023-04-25T06:59:29;9.10;99.90
18456;DHT22;9357;49.900;8.208;2023-04-25T07:01:02;9.10;99.90
18456;DHT22;9357;49.900;8.208;2023-04-25T07:02:36;9.20;99.90
18456;DHT22;9357;49.900;8.208;2023-04-25T07:04:09;9.20;99.90
18456;DHT22;9357;49.900;8.208;2023-04-25T07:05:42;9.30;99.90
18456;DHT22;9357;49.900;8.208;2023-04-25T07:07:17;9.30;99.90
18456;DHT22;9357;49.900;8.208;2023-04-25T07:08:49;9.40;99.90
18456;DHT22;9357;49.900;8.208;2023-04-25T07:10:23;9.40;99.90
18456;DHT22;9357;49.900;8.208;2023-04-25T07:11:56;9.50;99.90
18456;DHT22;9357;49.900;8.208;2023-04-25T07:13:29;9.50;99.90
18456;DHT22;9357;49.900;8.208;2023-04-25T07:15:02;9.60;99.90
18456;DHT22;9357;49.900;8.208;2023-04-25T07:16:37;9.60;99.90
18456;DHT22;9357;49.900;8.208;2023-04-25T07:18:11;9.60;99.90
18456;DHT22;9357;49.900;8.208;2023-04-25T07:19:44;9.60;99.90
18456;DHT22;9357;49.900;8.208;2023-04-25T07:21:17;9.70;99.90
18456;DHT22;9357;49.900;8.208;2023-04-25T07:22:49;9.70;99.90
18456;DHT22;9357;49.900;8.208;2023-04-25T07:24:22;9.80;99.90
18456;DHT22;9357;49.900;8.208;2023-04-25T07:25:55;9.80;99.90
18456;DHT22;9357;49.900;8.208;2023-04-25T07:27:28;9.80;99.90
18456;DHT22;9357;49.900;8.208;2023-04-25T07:29:01;9.80;99.90
18456;DHT22;9357;49.900;8.208;2023-04-25T07:30:34;9.80;99.90
18456;DHT22;9357;49.900;8.208;2023-04-25T07:32:07;9.80;99.90
18456;DHT22;9357;49.900;8.208;2023-04-25T07:33:41;9.80;99.90
18456;DHT22;9357;49.900;8.208;2023-04-25T07:35:14;9.80;99.90
18456;DHT22;9357;49.900;8.208;2023-04-25T07:36:47;9.80;99.90
18456;DHT22;9357;49.900;8.208;2023-04-25T07:38:19;9.80;99.90
18456;DHT22;9357;49.900;8.208;2023-04-25T07:39:52;9.80;99.90
18456;DHT22;9357;49.900;8.208;2023-04-25T07:41:25;9.90;99.90
18456;DHT22;9357;49.900;8.208;2023-04-25T07:42:58;10.00;99.90
18456;DHT22;9357;49.900;8.208;2023-04-25T07:44:31;10.10;99.90
18456;DHT22;9357;49.900;8.208;2023-04-25T07:46:09;10.20;99.90
18456;DHT22;9357;49.900;8.208;2023-04-25T07:47:42;10.20;99.90
18456;DHT22;9357;49.900;8.208;2023-04-25T07:49:16;10.40;99.90
18456;DHT22;9357;49.900;8.208;2023-04-25T07:50:49;10.50;99.90
18456;DHT22;9357;49.900;8.208;2023-04-25T07:52:22;10.60;99.90
18456;DHT22;9357;49.900;8.208;2023-04-25T07:53:54;10.70;99.90
18456;DHT22;9357;49.900;8.208;2023-04-25T07:55:27;10.80;99.90
18456;DHT22;9357;49.900;8.208;2023-04-25T07:57:00;10.90;99.90
18456;DHT22;9357;49.900;8.208;2023-04-25T07:58:33;11.10;99.90
18456;DHT22;9357;49.900;8.208;2023-04-25T08:00:07;11.20;99.90
18456;DHT22;9357;49.900;8.208;2023-04-25T08:01:42;11.30;99.90
18456;DHT22;9357;49.900;8.208;2023-04-25T08:03:15;11.30;99.90
18456;DHT22;9357;49.900;8.208;2023-04-25T08:04:49;11.40;99.90
18456;DHT22;9357;49.900;8.208;2023-04-25T08:06:22;11.40;99.90
18456;DHT22;9357;49.900;8.208;2023-04-25T08:07:55;11.50;99.90
18456;DHT22;9357;49.900;8.208;2023-04-25T08:09:29;11.50;99.90
18456;DHT22;9357;49.900;8.208;2023-04-25T08:11:06;11.60;99.90
18456;DHT22;9357;49.900;8.208;2023-04-25T08:12:38;11.70;99.90
18456;DHT22;9357;49.900;8.208;2023-04-25T08:14:11;11.70;99.90
18456;DHT22;9357;49.900;8.208;2023-04-25T08:15:44;11.80;99.90
18456;DHT22;9357;49.900;8.208;2023-04-25T08:17:17;11.90;99.90
18456;DHT22;9357;49.900;8.208;2023-04-25T08:18:50;12.00;99.90
18456;DHT22;9357;49.900;8.208;2023-04-25T08:20:25;11.90;99.90
18456;DHT22;9357;49.900;8.208;2023-04-25T08:21:57;11.90;99.90
18456;DHT22;9357;49.900;8.208;2023-04-25T08:23:30;11.90;99.90
18456;DHT22;9357;49.900;8.208;2023-04-25T08:25:04;11.80;99.90
18456;DHT22;9357;49.900;8.208;2023-04-25T08:26:37;11.70;99.90
18456;DHT22;9357;49.900;8.208;2023-04-25T08:28:10;11.70;99.90
18456;DHT22;9357;49.900;8.208;2023-04-25T08:29:43;11.70;99.90
18456;DHT22;9357;49.900;8.208;2023-04-25T08:31:16;11.60;99.90
18456;DHT22;9357;49.900;8.208;2023-04-25T08:32:49;11.60;99.90
18456;DHT22;9357;49.900;8.208;2023-04-25T08:34:21;11.70;99.90
18456;DHT22;9357;49.900;8.208;2023-04-25T08:35:56;11.80;99.90
18456;DHT22;9357;49.900;8.208;2023-04-25T08:37:28;11.80;99.90
18456;DHT22;9357;49.900;8.208;2023-04-25T08:39:02;11.90;99.90
18456;DHT22;9357;49.900;8.208;2023-04-25T08:40:38;12.10;99.90
18456;DHT22;9357;49.900;8.208;2023-04-25T08:42:12;12.10;99.90
18456;DHT22;9357;49.900;8.208;2023-04-25T08:43:45;12.20;99.90
18456;DHT22;9357;49.900;8.208;2023-04-25T08:45:20;12.30;99.90
18456;DHT22;9357;49.900;8.208;2023-04-25T08:46:55;12.40;99.90
18456;DHT22;9357;49.900;8.208;2023-04-25T08:48:28;12.50;99.90
18456;DHT22;9357;49.900;8.208;2023-04-25T08:50:03;12.70;99.90
18456;DHT22;9357;49.900;8.208;2023-04-25T08:51:45;12.90;99.90
18456;DHT22;9357;49.900;8.208;2023-04-25T08:53:28;13.10;99.90
18456;DHT22;9357;49.900;8.208;2023-04-25T08:55:02;13.40;99.90
18456;DHT22;9357;49.900;8.208;2023-04-25T08:56:36;13.60;99.90
18456;DHT22;9357;49.900;8.208;2023-04-25T08:58:11;13.80;99.90
18456;DHT22;9357;49.900;8.208;2023-04-25T08:59:45;14.00;99.90
18456;DHT22;9357;49.900;8.208;2023-04-25T09:01:18;14.20;99.90
18456;DHT22;9357;49.900;8.208;2023-04-25T09:02:51;14.40;99.90
18456;DHT22;9357;49.900;8.208;2023-04-25T09:04:25;14.50;99.90
18456;DHT22;9357;49.900;8.208;2023-04-25T09:05:58;14.70;99.90
18456;DHT22;9357;49.900;8.208;2023-04-25T09:07:32;14.90;99.90
18456;DHT22;9357;49.900;8.208;2023-04-25T09:09:07;15.00;99.90
18456;DHT22;9357;49.900;8.208;2023-04-25T09:10:40;15.10;99.90
18456;DHT22;9357;49.900;8.208;2023-04-25T09:12:13;15.10;99.90
18456;DHT22;9357;49.900;8.208;2023-04-25T09:13:46;15.20;99.90
18456;DHT22;9357;49.900;8.208;2023-04-25T09:15:20;15.10;99.90
18456;DHT22;9357;49.900;8.208;2023-04-25T09:17:00;15.10;99.90
18456;DHT22;9357;49.900;8.208;2023-04-25T09:18:35;15.00;99.90
18456;DHT22;9357;49.900;8.208;2023-04-25T09:20:09;14.90;99.90
18456;DHT22;9357;49.900;8.208;2023-04-25T09:21:42;14.80;99.90
18456;DHT22;9357;49.900;8.208;2023-04-25T09:23:19;14.80;99.90
18456;DHT22;9357;49.900;8.208;2023-04-25T09:24:52;14.90;99.90
18456;DHT22;9357;49.900;8.208;2023-04-25T09:26:25;14.90;99.90
18456;DHT22;9357;49.900;8.208;2023-04-25T09:28:03;14.90;99.90
18456;DHT22;9357;49.900;8.208;2023-04-25T09:29:37;14.90;99.90
18456;DHT22;9357;49.900;8.208;2023-04-25T09:31:11;14.90;99.90
18456;DHT22;9357;49.900;8.208;2023-04-25T09:32:44;14.90;99.90
18456;DHT22;9357;49.900;8.208;2023-04-25T09:34:17;14.80;99.90
18456;DHT22;9357;49.900;8.208;2023-04-25T09:35:49;14.60;99.90
18456;DHT22;9357;49.900;8.208;2023-04-25T09:37:27;14.50;99.90
18456;DHT22;9357;49.900;8.208;2023-04-25T09:39:02;14.50;99.90
18456;DHT22;9357;49.900;8.208;2023-04-25T09:40:39;14.50;99.90
18456;DHT22;9357;49.900;8.208;2023-04-25T09:42:12;14.40;99.90
18456;DHT22;9357;49.900;8.208;2023-04-25T09:43:45;14.30;99.90
18456;DHT22;9357;49.900;8.208;2023-04-25T09:45:19;14.40;99.90
18456;DHT22;9357;49.900;8.208;2023-04-25T09:46:52;14.60;99.90
18456;DHT22;9357;49.900;8.208;2023-04-25T09:48:26;14.70;99.90
18456;DHT22;9357;49.900;8.208;2023-04-25T09:49:59;14.70;99.90
18456;DHT22;9357;49.900;8.208;2023-04-25T09:51:32;14.80;99.90
18456;DHT22;9357;49.900;8.208;2023-04-25T09:53:05;14.80;99.90
18456;DHT22;9357;49.900;8.208;2023-04-25T09:54:39;14.70;99.90
18456;DHT22;9357;49.900;8.208;2023-04-25T09:56:12;14.70;99.90
18456;DHT22;9357;49.900;8.208;2023-04-25T09:57:50;14.60;99.90
18456;DHT22;9357;49.900;8.208;2023-04-25T09:59:26;14.60;99.90
18456;DHT22;9357;49.900;8.208;2023-04-25T10:01:00;14.60;99.90
18456;DHT22;9357;49.900;8.208;2023-04-25T10:02:34;14.50;99.90
18456;DHT22;9357;49.900;8.208;2023-04-25T10:04:10;14.40;99.90
18456;DHT22;9357;49.900;8.208;2023-04-25T10:05:44;14.30;99.90